createdAt,value
2022-11-19T00:00:36.980Z,99.29
2022-11-19T00:01:36.991Z,99.02
2022-11-19T00:02:36.937Z,98.98
2022-11-19T00:03:36.922Z,99.65
2022-11-19T00:04:36.940Z,99.13
2022-11-19T00:05:36.967Z,99.99
2022-11-19T00:06:37.006Z,99.99
2022-11-19T00:07:37.051Z,99.55
2022-11-19T00:08:36.906Z,99.99
2022-11-19T00:09:36.904Z,99.24
2022-11-19T00:10:36.895Z,99.82
2022-11-19T00:11:36.969Z,99.99
2022-11-19T00:12:36.898Z,99.61
2022-11-19T00:13:36.874Z,99.08
2022-11-19T00:14:36.860Z,99.08
2022-11-19T00:15:36.904Z,99.08
2022-11-19T00:16:36.904Z,99.99
2022-11-19T00:17:36.889Z,99.99
2022-11-19T00:18:36.876Z,99.99
2022-11-19T00:19:36.878Z,99.99
2022-11-19T00:20:36.842Z,99.99
2022-11-19T00:21:36.819Z,99.99
2022-11-19T00:22:36.832Z,99.92
2022-11-19T00:23:36.824Z,99.82
2022-11-19T00:24:36.812Z,99.99
2022-11-19T00:25:36.847Z,99.99
2022-11-19T00:26:36.855Z,99.99
2022-11-19T00:27:36.799Z,99.99
2022-11-19T00:28:37.505Z,99.99
2022-11-19T00:29:36.780Z,99.99
2022-11-19T00:30:52.160Z,99.99
2022-11-19T00:31:38.872Z,99.99
2022-11-19T00:32:36.775Z,99.99
2022-11-19T00:33:36.751Z,99.99
2022-11-19T00:34:36.744Z,99.99
2022-11-19T00:35:36.787Z,99.99
2022-11-19T00:36:36.740Z,99.99
2022-11-19T00:37:36.763Z,99.99
2022-11-19T00:38:38.578Z,99.99
2022-11-19T00:39:36.750Z,99.99
2022-11-19T00:40:36.730Z,99.99
2022-11-19T00:41:36.749Z,99.99
2022-11-19T00:42:36.755Z,99.99
2022-11-19T00:43:36.706Z,99.99
2022-11-19T00:44:37.587Z,99.99
2022-11-19T00:45:37.686Z,99.99
2022-11-19T00:46:36.699Z,99.99
2022-11-19T00:47:36.655Z,99.99
2022-11-19T00:48:36.661Z,99.99
2022-11-19T00:49:36.663Z,99.99
2022-11-19T00:50:36.649Z,99.99
2022-11-19T00:51:36.668Z,99.99
2022-11-19T00:52:36.680Z,99.99
2022-11-19T00:53:36.680Z,99.99
2022-11-19T00:54:36.611Z,99.99
2022-11-19T00:55:36.627Z,99.99
2022-11-19T00:56:36.600Z,99.99
2022-11-19T00:57:36.616Z,99.99
2022-11-19T00:58:36.608Z,99.99
2022-11-19T00:59:36.707Z,99.99
2022-11-19T01:00:36.593Z,99.99
2022-11-19T01:01:36.672Z,99.99
2022-11-19T01:02:36.570Z,99.99
2022-11-19T01:03:36.571Z,99.99
2022-11-19T01:04:36.603Z,99.99
2022-11-19T01:05:36.543Z,99.99
2022-11-19T01:06:36.563Z,99.99
2022-11-19T01:07:36.593Z,99.99
2022-11-19T01:08:36.584Z,99.99
2022-11-19T01:09:36.535Z,99.99
2022-11-19T01:10:36.586Z,99.99
2022-11-19T01:11:36.509Z,99.99
2022-11-19T01:12:36.509Z,99.99
2022-11-19T01:13:36.522Z,99.99
2022-11-19T01:14:36.543Z,99.99
2022-11-19T01:15:36.632Z,99.99
2022-11-19T01:16:36.498Z,99.99
2022-11-19T01:17:36.459Z,99.99
2022-11-19T01:18:36.479Z,99.99
2022-11-19T01:19:36.519Z,99.99
2022-11-19T01:20:36.514Z,99.99
2022-11-19T01:21:36.515Z,99.99
2022-11-19T01:22:36.478Z,99.99
2022-11-19T01:23:36.477Z,99.80
2022-11-19T01:24:36.441Z,99.49
2022-11-19T01:25:36.453Z,99.91
2022-11-19T01:26:36.459Z,99.99
2022-11-19T01:27:36.393Z,99.99
2022-11-19T01:28:36.437Z,99.99
2022-11-19T01:29:36.452Z,99.99
2022-11-19T01:30:36.463Z,99.99
2022-11-19T01:31:36.400Z,99.99
2022-11-19T01:32:36.540Z,99.99
2022-11-19T01:33:36.387Z,99.99
2022-11-19T01:34:36.369Z,99.99
2022-11-19T01:35:36.377Z,99.99
2022-11-19T01:36:36.360Z,99.99
2022-11-19T01:37:36.430Z,99.99
2022-11-19T01:38:36.384Z,99.99
2022-11-19T01:39:36.360Z,99.99
2022-11-19T01:40:37.057Z,99.99
2022-11-19T01:41:36.309Z,99.99
2022-11-19T01:42:36.393Z,99.99
2022-11-19T01:43:36.431Z,99.99
2022-11-19T01:44:36.302Z,99.99
2022-11-19T01:45:36.334Z,99.99
2022-11-19T01:46:36.320Z,99.99
2022-11-19T01:47:36.285Z,99.99
2022-11-19T01:48:36.353Z,99.99
2022-11-19T01:49:36.264Z,99.85
2022-11-19T01:50:36.304Z,99.99
2022-11-19T01:51:36.273Z,99.99
2022-11-19T01:52:36.290Z,99.99
2022-11-19T01:53:36.246Z,99.99
2022-11-19T01:54:36.360Z,99.99
2022-11-19T01:55:36.259Z,99.99
2022-11-19T01:56:36.273Z,99.99
2022-11-19T01:57:36.259Z,99.99
2022-11-19T01:58:37.236Z,99.99
2022-11-19T01:59:36.225Z,99.99
2022-11-19T02:00:36.193Z,99.99
2022-11-19T02:01:36.279Z,99.99
2022-11-19T02:02:36.188Z,99.99
2022-11-19T02:03:36.271Z,99.99
2022-11-19T02:04:36.198Z,99.99
2022-11-19T02:05:36.307Z,99.99
2022-11-19T02:06:36.184Z,99.99
2022-11-19T02:07:36.239Z,99.99
2022-11-19T02:08:36.192Z,99.99
2022-11-19T02:09:36.152Z,99.99
2022-11-19T02:10:36.203Z,99.99
2022-11-19T02:11:36.171Z,99.99
2022-11-19T02:12:36.113Z,99.99
2022-11-19T02:13:36.139Z,99.99
2022-11-19T02:14:36.123Z,99.99
2022-11-19T02:15:36.112Z,99.99
2022-11-19T02:16:36.138Z,99.99
2022-11-19T02:17:36.075Z,99.99
2022-11-19T02:18:36.096Z,99.99
2022-11-19T02:19:36.090Z,99.99
2022-11-19T02:20:36.107Z,99.99
2022-11-19T02:21:36.110Z,99.99
2022-11-19T02:22:36.084Z,99.99
2022-11-19T02:23:36.048Z,99.99
2022-11-19T02:24:36.073Z,99.99
2022-11-19T02:25:36.042Z,99.99
2022-11-19T02:26:36.061Z,99.99
2022-11-19T02:27:36.069Z,99.99
2022-11-19T02:28:36.044Z,99.99
2022-11-19T02:29:36.035Z,99.99
2022-11-19T02:30:36.037Z,99.99
2022-11-19T02:31:36.082Z,99.99
2022-11-19T02:32:36.032Z,99.99
2022-11-19T02:33:35.987Z,99.99
2022-11-19T02:34:36.016Z,99.99
2022-11-19T02:35:35.976Z,99.99
2022-11-19T02:36:35.994Z,99.99
2022-11-19T02:37:36.021Z,99.99
2022-11-19T02:38:35.992Z,99.99
2022-11-19T02:39:35.960Z,99.99
2022-11-19T02:40:35.947Z,99.99
2022-11-19T02:41:35.948Z,99.99
2022-11-19T02:42:35.948Z,99.99
2022-11-19T02:43:35.971Z,99.99
2022-11-19T02:44:35.959Z,99.99
2022-11-19T02:45:35.941Z,99.99
2022-11-19T02:46:35.922Z,99.99
2022-11-19T02:47:35.949Z,99.99
2022-11-19T02:48:35.962Z,99.99
2022-11-19T02:49:36.013Z,99.99
2022-11-19T02:50:35.905Z,99.99
2022-11-19T02:51:36.881Z,99.99
2022-11-19T02:52:35.916Z,99.99
2022-11-19T02:53:35.909Z,99.99
2022-11-19T02:54:35.899Z,99.99
2022-11-19T02:55:35.868Z,99.99
2022-11-19T02:56:35.890Z,99.99
2022-11-19T02:57:35.884Z,99.99
2022-11-19T02:58:35.848Z,99.99
2022-11-19T02:59:35.854Z,99.99
2022-11-19T03:00:35.973Z,99.31
2022-11-19T03:01:36.632Z,99.99
2022-11-19T03:02:35.910Z,99.99
2022-11-19T03:03:35.797Z,99.99
2022-11-19T03:04:35.816Z,99.99
2022-11-19T03:05:35.864Z,99.99
2022-11-19T03:06:35.804Z,99.99
2022-11-19T03:07:35.883Z,99.99
2022-11-19T03:08:35.773Z,99.99
2022-11-19T03:09:35.788Z,99.99
2022-11-19T03:10:35.770Z,99.99
2022-11-19T03:11:35.887Z,99.99
2022-11-19T03:12:35.788Z,99.99
2022-11-19T03:13:35.781Z,99.99
2022-11-19T03:14:35.756Z,99.99
2022-11-19T03:15:35.793Z,99.99
2022-11-19T03:16:35.796Z,99.99
2022-11-19T03:17:35.760Z,99.99
2022-11-19T03:18:35.743Z,99.99
2022-11-19T03:19:35.736Z,99.99
2022-11-19T03:20:35.727Z,99.99
2022-11-19T03:21:35.748Z,99.99
2022-11-19T03:22:35.770Z,99.99
2022-11-19T03:23:35.690Z,99.99
2022-11-19T03:24:35.721Z,99.99
2022-11-19T03:25:35.689Z,99.99
2022-11-19T03:26:35.673Z,99.99
2022-11-19T03:27:35.790Z,99.99
2022-11-19T03:28:35.679Z,99.99
2022-11-19T03:29:35.673Z,99.99
2022-11-19T03:30:35.653Z,99.99
2022-11-19T03:31:35.655Z,99.99
2022-11-19T03:32:35.651Z,99.99
2022-11-19T03:33:35.707Z,99.99
2022-11-19T03:34:35.653Z,99.99
2022-11-19T03:35:35.620Z,99.99
2022-11-19T03:36:35.627Z,99.99
2022-11-19T03:37:35.635Z,99.99
2022-11-19T03:38:35.739Z,99.99
2022-11-19T03:39:35.601Z,99.99
2022-11-19T03:40:35.609Z,99.95
2022-11-19T03:41:35.621Z,98.74
2022-11-19T03:42:35.614Z,99.27
2022-11-19T03:43:35.603Z,99.05
2022-11-19T03:44:35.685Z,99.10
2022-11-19T03:45:35.597Z,98.47
2022-11-19T03:46:35.577Z,99.10
2022-11-19T03:47:35.550Z,99.05
2022-11-19T03:48:35.537Z,99.27
2022-11-19T03:49:35.719Z,99.16
2022-11-19T03:50:35.552Z,99.10
2022-11-19T03:51:35.562Z,99.21
2022-11-19T03:52:35.544Z,99.99
2022-11-19T03:53:35.542Z,99.99
2022-11-19T03:54:35.545Z,99.99
2022-11-19T03:55:35.652Z,99.46
2022-11-19T03:56:35.549Z,99.94
2022-11-19T03:57:35.493Z,99.99
2022-11-19T03:58:35.521Z,99.99
2022-11-19T03:59:35.509Z,99.63
2022-11-19T04:00:35.519Z,99.10
2022-11-19T04:01:35.563Z,98.26
2022-11-19T04:02:35.500Z,98.68
2022-11-19T04:03:35.433Z,99.99
2022-11-19T04:04:35.483Z,99.99
2022-11-19T04:05:35.443Z,99.31
2022-11-19T04:06:35.564Z,99.48
2022-11-19T04:07:35.486Z,99.31
2022-11-19T04:08:35.450Z,97.74
2022-11-19T04:09:35.440Z,97.95
2022-11-19T04:10:35.442Z,97.99
2022-11-19T04:11:35.530Z,97.16
2022-11-19T04:12:36.431Z,98.10
2022-11-19T04:13:35.441Z,98.47
2022-11-19T04:14:35.433Z,98.21
2022-11-19T04:15:35.399Z,98.10
2022-11-19T04:16:35.390Z,99.57
2022-11-19T04:17:35.418Z,99.04
2022-11-19T04:18:35.383Z,98.83
2022-11-19T04:19:35.365Z,99.25
2022-11-19T04:20:35.379Z,97.68
2022-11-19T04:21:35.358Z,96.94
2022-11-19T04:22:35.370Z,96.47
2022-11-19T04:23:35.361Z,97.16
2022-11-19T04:24:35.334Z,97.58
2022-11-19T04:25:35.344Z,98.47
2022-11-19T04:26:35.306Z,99.15
2022-11-19T04:27:35.316Z,98.83
2022-11-19T04:28:35.354Z,99.41
2022-11-19T04:29:35.306Z,98.68
2022-11-19T04:30:35.302Z,98.37
2022-11-19T04:31:35.296Z,97.32
2022-11-19T04:32:35.281Z,97.42
2022-11-19T04:33:35.378Z,97.22
2022-11-19T04:34:35.287Z,96.84
2022-11-19T04:35:35.253Z,96.94
2022-11-19T04:36:35.266Z,97.63
2022-11-19T04:37:35.230Z,97.05
2022-11-19T04:38:35.269Z,97.32
2022-11-19T04:39:35.285Z,99.21
2022-11-19T04:40:35.242Z,99.00
2022-11-19T04:41:35.231Z,99.37
2022-11-19T04:42:35.238Z,97.11
2022-11-19T04:43:35.220Z,97.22
2022-11-19T04:44:35.241Z,96.90
2022-11-19T04:45:35.222Z,97.63
2022-11-19T04:46:35.201Z,98.22
2022-11-19T04:47:35.194Z,98.16
2022-11-19T04:48:35.950Z,97.38
2022-11-19T04:49:35.200Z,96.27
2022-11-19T04:50:35.280Z,95.96
2022-11-19T04:51:35.189Z,97.22
2022-11-19T04:52:40.346Z,96.80
2022-11-19T04:53:36.134Z,97.00
2022-11-19T04:54:35.165Z,97.11
2022-11-19T04:55:35.212Z,96.42
2022-11-19T04:56:35.116Z,96.37
2022-11-19T04:57:35.168Z,95.90
2022-11-19T04:58:35.125Z,97.05
2022-11-19T04:59:35.102Z,96.94
2022-11-19T05:00:35.140Z,97.00
2022-11-19T05:01:35.196Z,97.00
2022-11-19T05:02:35.118Z,96.06
2022-11-19T05:03:35.095Z,96.00
2022-11-19T05:04:35.103Z,95.86
2022-11-19T05:05:35.070Z,96.37
2022-11-19T05:06:35.078Z,95.96
2022-11-19T05:07:35.132Z,95.33
2022-11-19T05:08:35.101Z,95.33
2022-11-19T05:09:35.077Z,95.12
2022-11-19T05:10:35.101Z,95.64
2022-11-19T05:11:35.053Z,95.75
2022-11-19T05:12:35.043Z,95.86
2022-11-19T05:13:35.066Z,95.64
2022-11-19T05:14:34.997Z,95.86
2022-11-19T05:15:35.057Z,95.33
2022-11-19T05:16:35.004Z,95.64
2022-11-19T05:17:35.069Z,96.11
2022-11-19T05:18:34.961Z,95.48
2022-11-19T05:19:35.019Z,95.37
2022-11-19T05:20:34.966Z,97.42
2022-11-19T05:21:34.946Z,95.75
2022-11-19T05:22:35.058Z,96.11
2022-11-19T05:23:35.061Z,95.37
2022-11-19T05:24:34.950Z,96.21
2022-11-19T05:25:34.951Z,96.63
2022-11-19T05:26:34.963Z,96.21
2022-11-19T05:27:34.970Z,95.64
2022-11-19T05:28:39.044Z,96.37
2022-11-19T05:29:35.893Z,95.33
2022-11-19T05:30:34.935Z,94.54
2022-11-19T05:31:34.923Z,95.00
2022-11-19T05:32:34.931Z,95.62
2022-11-19T05:33:34.968Z,95.31
2022-11-19T05:34:34.895Z,95.94
2022-11-19T05:35:34.876Z,95.73
2022-11-19T05:36:34.916Z,95.84
2022-11-19T05:37:34.882Z,97.58
2022-11-19T05:38:34.886Z,95.68
2022-11-19T05:39:34.989Z,95.42
2022-11-19T05:40:34.854Z,95.84
2022-11-19T05:41:34.827Z,95.52
2022-11-19T05:42:34.824Z,95.31
2022-11-19T05:43:34.851Z,95.00
2022-11-19T05:44:34.797Z,95.94
2022-11-19T05:45:34.947Z,96.63
2022-11-19T05:46:34.826Z,97.47
2022-11-19T05:47:34.799Z,97.47
2022-11-19T05:48:34.799Z,95.48
2022-11-19T05:49:34.820Z,95.79
2022-11-19T05:50:34.820Z,95.68
2022-11-19T05:51:34.763Z,95.68
2022-11-19T05:52:34.814Z,95.31
2022-11-19T05:53:34.757Z,95.90
2022-11-19T05:54:34.793Z,96.00
2022-11-19T05:55:34.771Z,95.27
2022-11-19T05:56:34.838Z,95.42
2022-11-19T05:57:34.750Z,95.21
2022-11-19T05:58:34.735Z,94.89
2022-11-19T05:59:34.714Z,95.62
2022-11-19T06:00:34.697Z,96.25
2022-11-19T06:01:34.745Z,97.26
2022-11-19T06:02:34.841Z,95.21
2022-11-19T06:03:34.752Z,95.62
2022-11-19T06:04:34.674Z,94.89
2022-11-19T06:05:39.814Z,95.10
2022-11-19T06:06:35.707Z,94.89
2022-11-19T06:07:34.752Z,95.10
2022-11-19T06:08:34.739Z,95.62
2022-11-19T06:09:34.703Z,95.73
2022-11-19T06:10:34.673Z,95.21
2022-11-19T06:11:34.654Z,95.10
2022-11-19T06:12:34.673Z,94.95
2022-11-19T06:13:34.667Z,96.11
2022-11-19T06:14:34.630Z,95.90
2022-11-19T06:15:34.626Z,95.37
2022-11-19T06:16:34.629Z,94.01
2022-11-19T06:17:34.757Z,94.06
2022-11-19T06:18:34.633Z,94.06
2022-11-19T06:19:34.604Z,94.89
2022-11-19T06:20:34.581Z,94.74
2022-11-19T06:21:34.628Z,96.00
2022-11-19T06:22:34.586Z,95.68
2022-11-19T06:23:34.652Z,95.27
2022-11-19T06:24:34.604Z,95.79
2022-11-19T06:25:34.587Z,93.70
2022-11-19T06:26:34.530Z,94.43
2022-11-19T06:27:34.555Z,95.06
2022-11-19T06:28:34.571Z,94.74
2022-11-19T06:29:34.529Z,93.91
2022-11-19T06:30:34.547Z,93.49
2022-11-19T06:31:34.515Z,93.80
2022-11-19T06:32:34.493Z,93.55
2022-11-19T06:33:34.534Z,94.85
2022-11-19T06:34:34.527Z,94.85
2022-11-19T06:35:34.525Z,94.28
2022-11-19T06:36:40.265Z,96.06
2022-11-19T06:37:36.501Z,94.49
2022-11-19T06:38:34.486Z,94.18
2022-11-19T06:39:34.497Z,93.55
2022-11-19T06:40:34.459Z,93.02
2022-11-19T06:41:34.464Z,92.50
2022-11-19T06:42:34.491Z,92.40
2022-11-19T06:43:34.445Z,93.02
2022-11-19T06:44:34.483Z,93.38
2022-11-19T06:45:34.594Z,93.59
2022-11-19T06:46:34.452Z,92.96
2022-11-19T06:47:34.456Z,94.12
2022-11-19T06:48:34.400Z,94.01
2022-11-19T06:49:34.392Z,93.07
2022-11-19T06:50:34.552Z,92.69
2022-11-19T06:51:34.394Z,92.80
2022-11-19T06:52:34.418Z,93.11
2022-11-19T06:53:34.407Z,94.16
2022-11-19T06:54:36.678Z,94.06
2022-11-19T06:55:34.383Z,94.58
2022-11-19T06:56:34.369Z,93.95
2022-11-19T06:57:34.385Z,94.89
2022-11-19T06:58:34.333Z,96.11
2022-11-19T06:59:34.352Z,94.74
2022-11-19T07:00:34.326Z,93.91
2022-11-19T07:01:34.380Z,93.70
2022-11-19T07:02:34.447Z,93.80
2022-11-19T07:03:34.318Z,94.74
2022-11-19T07:04:34.345Z,94.85
2022-11-19T07:05:34.268Z,95.33
2022-11-19T07:06:34.340Z,92.96
2022-11-19T07:07:34.344Z,93.27
2022-11-19T07:08:34.297Z,94.12
2022-11-19T07:09:34.277Z,93.91
2022-11-19T07:10:34.269Z,93.32
2022-11-19T07:11:34.303Z,94.74
2022-11-19T07:12:34.300Z,95.12
2022-11-19T07:13:34.254Z,94.07
2022-11-19T07:14:34.272Z,94.81
2022-11-19T07:15:34.249Z,95.43
2022-11-19T07:16:35.032Z,93.65
2022-11-19T07:17:34.231Z,93.02
2022-11-19T07:18:34.261Z,92.82
2022-11-19T07:19:34.209Z,92.08
2022-11-19T07:20:34.198Z,91.71
2022-11-19T07:21:34.206Z,92.02
2022-11-19T07:22:34.189Z,94.18
2022-11-19T07:23:34.309Z,93.87
2022-11-19T07:24:34.157Z,92.61
2022-11-19T07:25:34.150Z,93.13
2022-11-19T07:26:34.188Z,93.02
2022-11-19T07:27:34.148Z,92.50
2022-11-19T07:28:34.200Z,93.13
2022-11-19T07:29:34.241Z,91.98
2022-11-19T07:30:34.124Z,91.56
2022-11-19T07:31:34.131Z,92.86
2022-11-19T07:32:34.119Z,91.60
2022-11-19T07:33:34.149Z,91.75
2022-11-19T07:34:34.213Z,93.43
2022-11-19T07:35:34.087Z,92.90
2022-11-19T07:36:34.097Z,92.33
2022-11-19T07:37:34.104Z,91.56
2022-11-19T07:38:36.924Z,92.61
2022-11-19T07:39:34.105Z,92.19
2022-11-19T07:40:34.152Z,93.76
2022-11-19T07:41:34.055Z,91.98
2022-11-19T07:42:34.054Z,89.84
2022-11-19T07:43:34.081Z,91.62
2022-11-19T07:44:34.059Z,92.98
2022-11-19T07:45:34.161Z,91.98
2022-11-19T07:46:34.024Z,90.51
2022-11-19T07:47:34.052Z,89.88
2022-11-19T07:48:34.042Z,89.47
2022-11-19T07:49:34.010Z,90.61
2022-11-19T07:50:34.011Z,91.66
2022-11-19T07:51:34.152Z,91.35
2022-11-19T07:52:34.002Z,89.88
2022-11-19T07:53:33.966Z,90.55
2022-11-19T07:54:34.011Z,91.56
2022-11-19T07:55:33.980Z,91.24
2022-11-19T07:56:34.166Z,91.87
2022-11-19T07:57:33.980Z,92.29
2022-11-19T07:58:33.964Z,91.24
2022-11-19T07:59:33.931Z,91.56
2022-11-19T08:00:33.949Z,91.62
2022-11-19T08:01:33.992Z,91.94
2022-11-19T08:02:33.957Z,92.67
2022-11-19T08:03:33.957Z,93.36
2022-11-19T08:04:33.916Z,91.72
2022-11-19T08:05:33.927Z,91.94
2022-11-19T08:06:33.889Z,91.27
2022-11-19T08:07:33.972Z,91.41
2022-11-19T08:08:33.894Z,89.73
2022-11-19T08:09:33.900Z,91.20
2022-11-19T08:10:33.892Z,91.94
2022-11-19T08:11:33.861Z,92.42
2022-11-19T08:12:33.858Z,92.42
2022-11-19T08:13:33.929Z,91.37
2022-11-19T08:14:33.889Z,92.73
2022-11-19T08:15:33.867Z,91.12
2022-11-19T08:16:33.849Z,89.07
2022-11-19T08:17:33.867Z,89.17
2022-11-19T08:18:33.898Z,89.48
2022-11-19T08:19:33.816Z,90.53
2022-11-19T08:20:33.815Z,89.07
2022-11-19T08:21:33.829Z,89.42
2022-11-19T08:22:33.902Z,89.22
2022-11-19T08:23:33.779Z,89.63
2022-11-19T08:24:33.912Z,90.64
2022-11-19T08:25:33.795Z,92.00
2022-11-19T08:26:33.758Z,92.38
2022-11-19T08:27:33.777Z,89.55
2022-11-19T08:28:33.785Z,88.71
2022-11-19T08:29:33.777Z,89.28
2022-11-19T08:30:33.791Z,88.65
2022-11-19T08:31:33.769Z,89.17
2022-11-19T08:32:33.763Z,89.45
2022-11-19T08:33:33.766Z,89.76
2022-11-19T08:34:33.748Z,89.13
2022-11-19T08:35:33.763Z,88.53
2022-11-19T08:36:33.766Z,87.38
2022-11-19T08:37:33.714Z,87.38
2022-11-19T08:38:38.482Z,87.69
2022-11-19T08:39:34.722Z,86.82
2022-11-19T08:40:33.760Z,87.65
2022-11-19T08:41:33.693Z,87.55
2022-11-19T08:42:33.683Z,86.29
2022-11-19T08:43:33.674Z,86.44
2022-11-19T08:44:33.673Z,86.75
2022-11-19T08:45:33.659Z,86.44
2022-11-19T08:46:33.685Z,87.10
2022-11-19T08:47:33.668Z,86.85
2022-11-19T08:48:33.699Z,87.63
2022-11-19T08:49:33.645Z,86.96
2022-11-19T08:50:33.633Z,86.65
2022-11-19T08:51:33.674Z,85.50
2022-11-19T08:52:33.681Z,85.29
2022-11-19T08:53:33.638Z,87.07
2022-11-19T08:54:33.615Z,87.76
2022-11-19T08:55:33.640Z,85.39
2022-11-19T08:56:33.619Z,85.85
2022-11-19T08:57:33.664Z,86.37
2022-11-19T08:58:33.631Z,87.84
2022-11-19T08:59:33.628Z,86.79
2022-11-19T09:00:33.645Z,87.10
2022-11-19T09:01:33.625Z,87.63
2022-11-19T09:02:33.705Z,87.00
2022-11-19T09:03:33.581Z,86.79
2022-11-19T09:04:33.605Z,87.90
2022-11-19T09:05:33.560Z,86.69
2022-11-19T09:06:33.566Z,87.42
2022-11-19T09:07:33.594Z,86.54
2022-11-19T09:08:33.579Z,86.08
2022-11-19T09:09:33.541Z,87.13
2022-11-19T09:10:33.509Z,87.19
2022-11-19T09:11:36.231Z,86.36
2022-11-19T09:12:33.534Z,84.17
2022-11-19T09:13:33.621Z,85.31
2022-11-19T09:14:33.495Z,84.77
2022-11-19T09:15:33.507Z,86.13
2022-11-19T09:16:33.542Z,85.81
2022-11-19T09:17:33.480Z,85.71
2022-11-19T09:18:33.532Z,86.75
2022-11-19T09:19:33.493Z,85.98
2022-11-19T09:20:33.507Z,85.77
2022-11-19T09:21:33.487Z,85.60
2022-11-19T09:22:33.453Z,85.60
2022-11-19T09:23:33.481Z,86.92
2022-11-19T09:24:33.591Z,85.98
2022-11-19T09:25:33.445Z,89.95
2022-11-19T09:26:33.467Z,87.13
2022-11-19T09:27:33.481Z,87.93
2022-11-19T09:28:33.448Z,87.09
2022-11-19T09:29:33.410Z,84.56
2022-11-19T09:30:33.550Z,85.08
2022-11-19T09:31:33.394Z,85.50
2022-11-19T09:32:33.405Z,87.21
2022-11-19T09:33:33.398Z,86.54
2022-11-19T09:34:33.394Z,87.17
2022-11-19T09:35:33.582Z,85.71
2022-11-19T09:36:33.402Z,86.96
2022-11-19T09:37:33.352Z,87.34
2022-11-19T09:38:33.364Z,87.76
2022-11-19T09:39:33.365Z,86.40
2022-11-19T09:40:33.352Z,85.71
2022-11-19T09:41:33.378Z,85.39
2022-11-19T09:42:33.340Z,87.17
2022-11-19T09:43:33.341Z,85.64
2022-11-19T09:44:33.353Z,86.47
2022-11-19T09:45:33.323Z,86.37
2022-11-19T09:46:33.344Z,84.97
2022-11-19T09:47:33.297Z,88.59
2022-11-19T09:48:33.288Z,86.13
2022-11-19T09:49:33.298Z,85.46
2022-11-19T09:50:33.309Z,84.41
2022-11-19T09:51:33.263Z,83.95
2022-11-19T09:52:33.399Z,84.23
2022-11-19T09:53:33.295Z,84.34
2022-11-19T09:54:33.275Z,83.01
2022-11-19T09:55:33.267Z,83.75
2022-11-19T09:56:33.260Z,83.54
2022-11-19T09:57:33.376Z,84.94
2022-11-19T09:58:33.247Z,85.11
2022-11-19T09:59:33.231Z,85.94
2022-11-19T10:00:33.222Z,83.85
2022-11-19T10:01:33.258Z,83.89
2022-11-19T10:02:33.324Z,84.10
2022-11-19T10:03:34.077Z,83.12
2022-11-19T10:04:35.041Z,83.95
2022-11-19T10:05:33.216Z,83.23
2022-11-19T10:06:34.183Z,84.17
2022-11-19T10:07:33.220Z,83.64
2022-11-19T10:08:33.210Z,83.50
2022-11-19T10:09:33.219Z,82.73
2022-11-19T10:10:33.164Z,82.00
2022-11-19T10:11:33.159Z,84.78
2022-11-19T10:12:33.164Z,83.42
2022-11-19T10:13:33.177Z,81.41
2022-11-19T10:14:33.186Z,81.72
2022-11-19T10:15:37.449Z,79.66
2022-11-19T10:16:34.120Z,79.22
2022-11-19T10:17:33.149Z,80.61
2022-11-19T10:18:33.109Z,80.40
2022-11-19T10:19:33.182Z,81.27
2022-11-19T10:20:33.108Z,82.00
2022-11-19T10:21:33.098Z,81.13
2022-11-19T10:22:34.129Z,84.05
2022-11-19T10:23:33.125Z,83.63
2022-11-19T10:24:33.084Z,83.91
2022-11-19T10:25:33.202Z,82.51
2022-11-19T10:26:33.110Z,81.16
2022-11-19T10:27:33.081Z,81.37
2022-11-19T10:28:33.148Z,79.77
2022-11-19T10:29:33.088Z,80.67
2022-11-19T10:30:33.209Z,81.88
2022-11-19T10:31:33.062Z,81.01
2022-11-19T10:32:33.071Z,78.48
2022-11-19T10:33:33.070Z,75.98
2022-11-19T10:34:33.195Z,76.37
2022-11-19T10:35:33.050Z,75.95
2022-11-19T10:36:33.096Z,77.09
2022-11-19T10:37:33.026Z,74.46
2022-11-19T10:38:33.020Z,73.60
2022-11-19T10:39:33.064Z,72.83
2022-11-19T10:40:33.014Z,73.77
2022-11-19T10:41:33.107Z,73.56
2022-11-19T10:42:33.007Z,73.49
2022-11-19T10:43:33.028Z,73.32
2022-11-19T10:44:32.998Z,73.10
2022-11-19T10:45:33.003Z,76.16
2022-11-19T10:46:33.025Z,77.66
2022-11-19T10:47:33.035Z,78.28
2022-11-19T10:48:33.027Z,78.69
2022-11-19T10:49:33.023Z,78.83
2022-11-19T10:50:32.980Z,78.94
2022-11-19T10:51:32.996Z,79.01
2022-11-19T10:52:33.043Z,80.65
2022-11-19T10:53:32.959Z,81.76
2022-11-19T10:54:32.968Z,79.63
2022-11-19T10:55:32.941Z,79.91
2022-11-19T10:56:32.917Z,81.20
2022-11-19T10:57:32.923Z,79.22
2022-11-19T10:58:33.083Z,81.37
2022-11-19T10:59:32.910Z,82.76
2022-11-19T11:00:32.918Z,81.16
2022-11-19T11:01:32.997Z,80.02
2022-11-19T11:02:32.945Z,78.66
2022-11-19T11:03:32.977Z,80.47
2022-11-19T11:04:32.918Z,79.91
2022-11-19T11:05:32.922Z,81.41
2022-11-19T11:06:32.887Z,81.21
2022-11-19T11:07:32.933Z,82.98
2022-11-19T11:08:32.828Z,85.59
2022-11-19T11:09:33.100Z,84.19
2022-11-19T11:10:32.853Z,85.10
2022-11-19T11:11:32.889Z,82.21
2022-11-19T11:12:32.855Z,82.90
2022-11-19T11:13:32.866Z,82.59
2022-11-19T11:14:32.868Z,81.02
2022-11-19T11:15:32.815Z,80.40
2022-11-19T11:16:37.638Z,79.77
2022-11-19T11:17:33.818Z,81.30
2022-11-19T11:18:32.846Z,80.09
2022-11-19T11:19:32.803Z,81.69
2022-11-19T11:20:32.885Z,81.83
2022-11-19T11:21:32.826Z,82.87
2022-11-19T11:22:32.784Z,81.24
2022-11-19T11:23:32.798Z,81.90
2022-11-19T11:24:32.780Z,84.00
2022-11-19T11:25:33.112Z,85.38
2022-11-19T11:26:32.758Z,84.75
2022-11-19T11:27:32.793Z,82.87
2022-11-19T11:28:32.758Z,82.29
2022-11-19T11:29:32.735Z,82.25
2022-11-19T11:30:32.726Z,82.67
2022-11-19T11:31:32.755Z,81.83
2022-11-19T11:32:32.748Z,81.66
2022-11-19T11:33:32.761Z,83.08
2022-11-19T11:34:32.687Z,82.56
2022-11-19T11:35:32.700Z,80.99
2022-11-19T11:36:32.820Z,79.91
2022-11-19T11:37:32.726Z,82.42
2022-11-19T11:38:32.685Z,81.79
2022-11-19T11:39:32.706Z,80.13
2022-11-19T11:40:32.704Z,80.75
2022-11-19T11:42:34.770Z,84.16
2022-11-19T11:43:32.693Z,82.90
2022-11-19T11:44:32.672Z,79.77
2022-11-19T11:45:32.632Z,79.25
2022-11-19T11:46:32.644Z,78.83
2022-11-19T11:47:32.654Z,78.80
2022-11-19T11:48:32.651Z,78.28
2022-11-19T11:49:32.679Z,78.34
2022-11-19T11:50:33.561Z,77.34
2022-11-19T11:51:32.651Z,77.34
2022-11-19T11:52:32.583Z,76.89
2022-11-19T11:53:32.595Z,78.34
2022-11-19T11:54:32.593Z,80.95
2022-11-19T11:55:32.651Z,78.42
2022-11-19T11:56:33.608Z,77.41
2022-11-19T11:57:32.586Z,77.51
2022-11-19T11:58:32.637Z,78.97
2022-11-19T11:59:32.612Z,77.62
2022-11-19T12:00:32.646Z,79.08
2022-11-19T12:01:32.529Z,79.39
2022-11-19T12:02:32.809Z,76.51
2022-11-19T12:03:32.549Z,77.13
2022-11-19T12:04:32.554Z,80.95
2022-11-19T12:05:32.569Z,80.33
2022-11-19T12:06:32.575Z,80.33
2022-11-19T12:07:32.552Z,77.23
2022-11-19T12:08:32.637Z,75.64
2022-11-19T12:09:32.559Z,74.60
2022-11-19T12:10:32.574Z,74.29
2022-11-19T12:11:32.556Z,74.88
2022-11-19T12:12:32.546Z,74.18
2022-11-19T12:13:32.540Z,75.64
2022-11-19T12:14:32.534Z,76.57
2022-11-19T12:15:32.527Z,77.30
2022-11-19T12:16:32.544Z,76.72
2022-11-19T12:17:32.501Z,78.34
2022-11-19T12:18:32.491Z,81.19
2022-11-19T12:19:32.495Z,79.42
2022-11-19T12:20:32.496Z,79.49
2022-11-19T12:21:32.511Z,78.03
2022-11-19T12:22:32.470Z,78.14
2022-11-19T12:23:32.523Z,77.09
2022-11-19T12:24:32.486Z,76.37
2022-11-19T12:25:32.471Z,76.23
2022-11-19T12:26:32.449Z,77.51
2022-11-19T12:27:32.436Z,76.99
2022-11-19T12:28:32.523Z,72.60
2022-11-19T12:29:32.441Z,68.34
2022-11-19T12:30:32.457Z,63.68
2022-11-19T12:31:33.407Z,63.65
2022-11-19T12:32:32.405Z,59.93
2022-11-19T12:33:32.365Z,58.23
2022-11-19T12:34:32.409Z,58.21
2022-11-19T12:35:32.354Z,56.77
2022-11-19T12:36:32.397Z,58.51
2022-11-19T12:37:32.406Z,58.28
2022-11-19T12:38:32.429Z,56.92
2022-11-19T12:39:32.385Z,56.18
2022-11-19T12:40:38.983Z,55.59
2022-11-19T12:41:34.445Z,56.00
2022-11-19T12:42:32.365Z,56.10
2022-11-19T12:43:32.380Z,55.36
2022-11-19T12:44:32.349Z,54.53
2022-11-19T12:45:32.305Z,55.56
2022-11-19T12:46:32.302Z,54.31
2022-11-19T12:47:32.301Z,55.98
2022-11-19T12:48:32.319Z,55.79
2022-11-19T12:49:32.325Z,54.77
2022-11-19T12:50:32.297Z,56.18
2022-11-19T12:51:32.268Z,56.30
2022-11-19T12:52:32.267Z,56.69
2022-11-19T12:53:32.297Z,54.13